createdAt,value
2023-02-26T00:00:10.551Z,5.63
2023-02-26T00:02:57.642Z,5.05
2023-02-26T00:05:24.505Z,6.47
2023-02-26T00:07:51.556Z,5.35
2023-02-26T00:10:18.376Z,5.35
2023-02-26T00:12:45.833Z,4.72
2023-02-26T00:15:15.032Z,5.45
2023-02-26T00:17:53.928Z,5.25
2023-02-26T00:20:21.272Z,4.32
2023-02-26T00:22:48.592Z,5.03
2023-02-26T00:25:15.477Z,4.60
2023-02-26T00:27:44.024Z,4.95
2023-02-26T00:30:11.407Z,4.68
2023-02-26T00:32:39.677Z,4.18
2023-02-26T00:35:08.521Z,4.70
2023-02-26T00:37:38.759Z,4.72
2023-02-26T00:40:21.901Z,4.07
2023-02-26T00:42:49.534Z,4.03
2023-02-26T00:45:16.797Z,4.00
2023-02-26T00:48:08.859Z,4.53
2023-02-26T00:50:36.030Z,3.65
2023-02-26T00:53:35.666Z,3.97
2023-02-26T00:56:02.423Z,4.13
2023-02-26T00:58:29.497Z,4.05
2023-02-26T01:00:56.250Z,4.47
2023-02-26T01:03:23.571Z,3.50
2023-02-26T01:05:50.510Z,3.53
2023-02-26T01:08:43.935Z,3.50
2023-02-26T01:11:10.921Z,4.15
2023-02-26T01:13:38.141Z,3.65
2023-02-26T01:16:09.862Z,4.20
2023-02-26T01:18:42.532Z,3.83
2023-02-26T01:21:10.998Z,4.55
2023-02-26T01:23:40.405Z,3.75
2023-02-26T01:26:12.579Z,3.55
2023-02-26T01:28:39.894Z,3.45
2023-02-26T01:31:07.348Z,3.95
2023-02-26T01:33:46.253Z,4.22
2023-02-26T01:36:17.360Z,3.85
2023-02-26T01:39:24.037Z,3.40
2023-02-26T01:42:12.554Z,3.92
2023-02-26T01:44:58.480Z,4.15
2023-02-26T01:47:50.371Z,3.60
2023-02-26T01:50:22.738Z,4.03
2023-02-26T01:52:49.477Z,3.58
2023-02-26T01:55:24.021Z,3.85
2023-02-26T01:57:51.192Z,4.05
2023-02-26T02:00:18.613Z,3.72
2023-02-26T02:02:45.500Z,3.28
2023-02-26T02:05:35.134Z,3.72
2023-02-26T02:08:01.894Z,3.63
2023-02-26T02:10:29.029Z,3.67
2023-02-26T02:13:15.826Z,4.53
2023-02-26T02:16:07.016Z,3.90
2023-02-26T02:19:01.869Z,4.43
2023-02-26T02:21:46.308Z,4.30
2023-02-26T02:24:40.175Z,4.43
2023-02-26T02:27:22.589Z,4.47
2023-02-26T02:30:07.968Z,4.13
2023-02-26T02:32:50.192Z,4.75
2023-02-26T02:35:26.390Z,4.82
2023-02-26T02:38:13.556Z,4.53
2023-02-26T02:40:42.876Z,4.53
2023-02-26T02:43:17.786Z,4.22
2023-02-26T02:45:54.228Z,4.07
2023-02-26T02:48:31.303Z,4.10
2023-02-26T02:51:12.690Z,4.40
2023-02-26T02:53:41.215Z,4.78
2023-02-26T02:56:14.730Z,4.50
2023-02-26T02:58:50.167Z,4.38
2023-02-26T03:01:18.672Z,4.80
2023-02-26T03:04:19.086Z,3.92
2023-02-26T03:06:50.200Z,4.28
2023-02-26T03:09:17.275Z,3.92
2023-02-26T03:11:44.005Z,4.35
2023-02-26T03:14:11.177Z,4.47
2023-02-26T03:16:44.173Z,4.05
2023-02-26T03:19:18.186Z,3.92
2023-02-26T03:22:07.137Z,3.90
2023-02-26T03:24:40.774Z,3.67
2023-02-26T03:27:16.793Z,3.70
2023-02-26T03:29:47.211Z,3.75
2023-02-26T03:32:36.120Z,3.95
2023-02-26T03:35:08.395Z,3.33
2023-02-26T03:37:40.999Z,3.45
2023-02-26T03:40:17.963Z,3.58
2023-02-26T03:42:47.323Z,3.72
2023-02-26T03:45:19.383Z,3.70
2023-02-26T03:47:48.568Z,3.58
2023-02-26T03:50:18.080Z,3.80
2023-02-26T03:52:45.984Z,3.40
2023-02-26T03:55:16.356Z,3.25
2023-02-26T03:57:43.116Z,3.60
2023-02-26T04:00:11.015Z,2.88
2023-02-26T04:02:43.064Z,3.78
2023-02-26T04:05:18.787Z,2.95
2023-02-26T04:07:46.053Z,3.22
2023-02-26T04:10:15.547Z,3.28
2023-02-26T04:12:42.576Z,3.30
2023-02-26T04:15:10.164Z,2.70
2023-02-26T04:17:36.944Z,3.08
2023-02-26T04:20:08.067Z,2.92
2023-02-26T04:22:34.787Z,3.10
2023-02-26T04:25:01.831Z,3.13
2023-02-26T04:27:28.575Z,3.45
2023-02-26T04:29:55.661Z,3.28
2023-02-26T04:32:22.432Z,3.40
2023-02-26T04:34:49.484Z,3.30
2023-02-26T04:37:16.210Z,3.05
2023-02-26T04:39:43.276Z,3.22
2023-02-26T04:42:10.017Z,3.38
2023-02-26T04:44:37.176Z,3.58
2023-02-26T04:47:04.077Z,3.20
2023-02-26T04:49:31.475Z,3.05
2023-02-26T04:51:58.454Z,3.10
2023-02-26T04:54:25.515Z,3.60
2023-02-26T04:56:52.248Z,3.05
2023-02-26T04:59:19.290Z,3.42
2023-02-26T05:01:46.111Z,3.30
2023-02-26T05:04:13.232Z,3.03
2023-02-26T05:06:40.059Z,2.75
2023-02-26T05:09:07.144Z,2.90
2023-02-26T05:11:33.909Z,3.85
2023-02-26T05:14:01.058Z,2.70
2023-02-26T05:16:28.220Z,2.88
2023-02-26T05:18:55.527Z,3.40
2023-02-26T05:21:24.597Z,2.80
2023-02-26T05:23:52.954Z,2.72
2023-02-26T05:26:19.704Z,3.10
2023-02-26T05:28:46.780Z,3.05
2023-02-26T05:31:13.930Z,2.83
2023-02-26T05:33:41.544Z,2.75
2023-02-26T05:36:08.434Z,2.50
2023-02-26T05:38:35.476Z,2.40
2023-02-26T05:41:02.343Z,2.95
2023-02-26T05:43:29.470Z,3.58
2023-02-26T05:45:56.262Z,3.00
2023-02-26T05:48:23.506Z,2.55
2023-02-26T05:50:50.378Z,3.17
2023-02-26T05:53:17.446Z,3.42
2023-02-26T05:55:44.177Z,2.97
2023-02-26T05:58:11.252Z,3.22
2023-02-26T06:00:38.073Z,2.72
2023-02-26T06:03:05.253Z,3.55
2023-02-26T06:05:32.065Z,3.50
2023-02-26T06:07:59.114Z,3.60
2023-02-26T06:10:25.918Z,2.92
2023-02-26T06:12:52.996Z,3.28
2023-02-26T06:15:19.792Z,3.40
2023-02-26T06:17:46.861Z,2.78
2023-02-26T06:20:13.698Z,3.13
2023-02-26T06:22:40.773Z,3.72
2023-02-26T06:25:07.817Z,4.00
2023-02-26T06:27:34.972Z,3.55
2023-02-26T06:30:01.876Z,3.30
2023-02-26T06:32:30.669Z,3.60
2023-02-26T06:34:57.662Z,3.25
2023-02-26T06:37:25.075Z,3.65
2023-02-26T06:39:51.919Z,4.00
2023-02-26T06:42:20.167Z,3.53
2023-02-26T06:44:47.155Z,4.18
2023-02-26T06:47:14.543Z,3.80
2023-02-26T06:49:41.319Z,4.45
2023-02-26T06:52:08.480Z,3.38
2023-02-26T06:54:35.349Z,3.85
2023-02-26T06:57:03.308Z,4.13
2023-02-26T06:59:30.063Z,4.63
2023-02-26T07:01:57.715Z,4.03
2023-02-26T07:04:24.496Z,4.00
2023-02-26T07:06:51.685Z,4.60
2023-02-26T07:09:20.143Z,4.53
2023-02-26T07:11:47.405Z,4.65
2023-02-26T07:14:14.233Z,3.83
2023-02-26T07:16:41.346Z,4.40
2023-02-26T07:19:08.172Z,4.55
2023-02-26T07:21:35.209Z,5.32
2023-02-26T07:24:01.948Z,5.22
2023-02-26T07:26:28.978Z,5.72
2023-02-26T07:28:55.761Z,6.03
2023-02-26T07:31:23.137Z,6.35
2023-02-26T07:33:49.969Z,7.88
2023-02-26T07:36:17.098Z,8.50
2023-02-26T07:38:43.842Z,7.90
2023-02-26T07:41:10.978Z,8.77
2023-02-26T07:43:37.738Z,10.02
2023-02-26T07:46:05.155Z,9.38
2023-02-26T07:48:31.980Z,10.38
2023-02-26T07:50:59.080Z,9.93
2023-02-26T07:53:26.084Z,9.07
2023-02-26T07:55:53.133Z,9.63
2023-02-26T07:58:19.930Z,10.77
2023-02-26T08:00:47.098Z,10.25
2023-02-26T08:03:15.416Z,9.77
2023-02-26T08:05:42.465Z,11.40
2023-02-26T08:08:09.194Z,10.52
2023-02-26T08:10:36.260Z,9.68
2023-02-26T08:13:03.047Z,9.50
2023-02-26T08:15:30.242Z,10.73
2023-02-26T08:17:57.129Z,10.07
2023-02-26T08:20:24.183Z,9.98
2023-02-26T08:22:51.013Z,8.77
2023-02-26T08:25:18.252Z,9.48
2023-02-26T08:27:45.016Z,8.48
2023-02-26T08:30:12.464Z,8.30
2023-02-26T08:32:42.583Z,8.52
2023-02-26T08:35:10.336Z,8.40
2023-02-26T08:37:37.107Z,8.60
2023-02-26T08:40:06.503Z,8.45
2023-02-26T08:42:33.231Z,8.77
2023-02-26T08:45:00.289Z,9.30
2023-02-26T08:47:29.064Z,9.40
2023-02-26T08:49:56.545Z,9.75
2023-02-26T08:52:23.356Z,9.23
2023-02-26T08:54:53.953Z,9.38
2023-02-26T08:57:20.700Z,8.07
2023-02-26T08:59:47.759Z,8.80
2023-02-26T09:02:14.679Z,7.18
2023-02-26T09:04:41.740Z,8.85
2023-02-26T09:07:08.579Z,7.05
2023-02-26T09:09:35.651Z,7.53
2023-02-26T09:12:02.435Z,6.82
2023-02-26T09:14:29.541Z,6.35
2023-02-26T09:16:56.392Z,6.10
2023-02-26T09:19:23.754Z,6.40
2023-02-26T09:21:50.808Z,5.28
2023-02-26T09:24:18.046Z,6.15
2023-02-26T09:26:45.288Z,5.18
2023-02-26T09:29:13.352Z,5.18
2023-02-26T09:31:42.419Z,4.47
2023-02-26T09:34:11.392Z,4.55
2023-02-26T09:36:38.893Z,4.50
2023-02-26T09:39:06.240Z,4.50
2023-02-26T09:41:44.587Z,4.05
2023-02-26T09:44:21.914Z,4.45
2023-02-26T09:47:10.580Z,3.67
2023-02-26T09:49:53.173Z,3.58
2023-02-26T09:52:30.176Z,3.45
2023-02-26T09:55:00.486Z,3.08
2023-02-26T09:57:35.145Z,3.60
2023-02-26T10:00:23.758Z,3.08
2023-02-26T10:02:54.811Z,3.42
2023-02-26T10:05:43.177Z,3.83
2023-02-26T10:08:17.543Z,3.08
2023-02-26T10:11:00.350Z,3.58
2023-02-26T10:13:40.481Z,2.83
2023-02-26T10:18:55.934Z,3.40
2023-02-26T10:21:48.999Z,2.50
2023-02-26T10:24:29.744Z,2.47
2023-02-26T10:27:01.563Z,2.90
2023-02-26T10:29:35.133Z,3.10
2023-02-26T10:32:23.608Z,2.58
2023-02-26T10:34:50.675Z,2.47
2023-02-26T10:37:35.808Z,2.35
2023-02-26T10:40:24.696Z,3.13
2023-02-26T10:43:04.222Z,2.30
2023-02-26T10:45:51.334Z,2.13
2023-02-26T10:48:46.716Z,2.85
2023-02-26T10:51:18.784Z,2.30
2023-02-26T10:54:01.313Z,2.40
2023-02-26T10:56:31.168Z,2.13
2023-02-26T10:58:58.538Z,2.42
2023-02-26T11:01:28.512Z,2.50
2023-02-26T11:03:59.972Z,2.58
2023-02-26T11:06:39.889Z,2.40
2023-02-26T11:09:29.057Z,2.35
2023-02-26T11:12:17.046Z,1.95
2023-02-26T11:14:45.089Z,2.33
2023-02-26T11:17:18.234Z,1.80
2023-02-26T11:20:12.392Z,2.00
2023-02-26T11:22:39.382Z,2.05
2023-02-26T11:25:07.095Z,2.53
2023-02-26T11:27:38.007Z,1.70
2023-02-26T11:30:08.148Z,2.55
2023-02-26T11:32:36.921Z,2.63
2023-02-26T11:35:06.539Z,2.10
2023-02-26T11:37:38.633Z,2.67
2023-02-26T11:40:14.073Z,2.10
2023-02-26T11:45:14.536Z,2.78
2023-02-26T11:47:41.369Z,2.63
2023-02-26T11:50:23.126Z,2.85
2023-02-26T11:53:08.383Z,3.15
2023-02-26T11:55:44.558Z,2.92
2023-02-26T11:58:22.803Z,3.08
2023-02-26T12:00:52.348Z,3.10
2023-02-26T12:03:22.275Z,3.05
2023-02-26T12:05:53.432Z,2.78
2023-02-26T12:08:46.756Z,3.13
2023-02-26T12:11:35.488Z,2.60
2023-02-26T12:14:20.806Z,3.00
2023-02-26T12:17:04.229Z,2.97
2023-02-26T12:19:49.429Z,2.60
2023-02-26T12:22:38.186Z,2.00
2023-02-26T12:25:08.141Z,2.70
2023-02-26T12:27:43.169Z,2.92
2023-02-26T12:30:34.269Z,2.53
2023-02-26T12:33:36.974Z,2.25
2023-02-26T12:36:21.752Z,2.50
2023-02-26T12:39:16.829Z,2.20
2023-02-26T12:42:05.162Z,2.08
2023-02-26T12:44:51.475Z,1.80
2023-02-26T12:47:30.350Z,2.90
2023-02-26T12:50:35.002Z,2.95
2023-02-26T12:53:16.142Z,3.13
2023-02-26T12:55:55.171Z,2.50
2023-02-26T12:58:49.959Z,2.42
2023-02-26T13:01:28.279Z,2.55
2023-02-26T13:04:00.468Z,2.20
2023-02-26T13:06:35.504Z,2.53
2023-02-26T13:09:14.102Z,2.13
2023-02-26T13:11:54.417Z,2.65
2023-02-26T13:14:31.436Z,2.35
2023-02-26T13:17:04.453Z,2.88
2023-02-26T13:19:48.480Z,2.95
2023-02-26T13:22:28.998Z,3.45
2023-02-26T13:25:14.997Z,2.65
2023-02-26T13:27:42.220Z,2.83
2023-02-26T13:30:51.339Z,2.78
2023-02-26T13:33:21.034Z,2.58
2023-02-26T13:35:47.983Z,2.60
2023-02-26T13:38:17.273Z,2.53
2023-02-26T13:41:02.092Z,2.90
2023-02-26T13:43:34.956Z,3.17
2023-02-26T13:46:11.027Z,2.55
2023-02-26T13:49:05.198Z,2.40
2023-02-26T13:51:34.825Z,2.80
2023-02-26T13:54:23.243Z,2.45
2023-02-26T13:57:25.968Z,2.95
2023-02-26T14:00:02.168Z,2.67
2023-02-26T14:02:36.339Z,2.80
2023-02-26T14:05:09.582Z,3.05
2023-02-26T14:07:49.651Z,2.42
2023-02-26T14:10:24.820Z,3.13
2023-02-26T14:13:20.157Z,2.92
2023-02-26T14:15:56.274Z,2.55
2023-02-26T14:18:32.133Z,2.78
2023-02-26T14:21:35.760Z,3.33
2023-02-26T14:24:12.084Z,2.90
2023-02-26T14:26:39.179Z,2.55
2023-02-26T14:29:05.919Z,3.05
2023-02-26T14:32:06.172Z,3.42
2023-02-26T14:34:36.675Z,3.65
2023-02-26T14:37:07.167Z,2.97
2023-02-26T14:39:47.621Z,3.92
2023-02-26T14:42:32.427Z,3.80
2023-02-26T14:45:08.887Z,3.45
2023-02-26T14:47:37.102Z,3.83
2023-02-26T14:50:06.309Z,4.88
2023-02-26T14:52:54.689Z,4.85
2023-02-26T14:55:21.474Z,4.13
2023-02-26T14:57:54.632Z,4.47
2023-02-26T15:00:30.356Z,3.85
2023-02-26T15:03:03.509Z,4.20
2023-02-26T15:05:39.459Z,3.90
2023-02-26T15:08:09.541Z,4.22
2023-02-26T15:10:54.181Z,3.50
2023-02-26T15:13:28.465Z,3.58
2023-02-26T15:16:04.427Z,3.67
2023-02-26T15:18:50.493Z,4.07
2023-02-26T15:24:03.726Z,3.03
2023-02-26T15:26:54.778Z,3.42
2023-02-26T15:29:25.568Z,4.13
2023-02-26T15:32:03.508Z,4.18
2023-02-26T15:34:30.908Z,3.50
2023-02-26T15:37:01.344Z,3.58
2023-02-26T15:39:28.568Z,3.30
2023-02-26T15:41:55.554Z,3.80
2023-02-26T15:44:30.766Z,3.50
2023-02-26T15:47:02.209Z,3.58
2023-02-26T15:49:33.605Z,3.72
2023-02-26T15:52:00.747Z,3.45
2023-02-26T15:54:33.482Z,3.80
2023-02-26T15:57:01.458Z,3.20
2023-02-26T15:59:29.614Z,3.63
2023-02-26T16:01:56.428Z,4.22
2023-02-26T16:04:23.668Z,3.92
2023-02-26T16:06:54.150Z,3.22
2023-02-26T16:09:34.663Z,4.10
2023-02-26T16:12:16.303Z,4.28
2023-02-26T16:14:50.189Z,4.07
2023-02-26T16:17:25.056Z,4.57
2023-02-26T16:19:52.121Z,4.20
2023-02-26T16:22:37.024Z,3.17
2023-02-26T16:25:08.470Z,3.50
2023-02-26T16:27:35.224Z,3.92
2023-02-26T16:30:04.091Z,4.63
2023-02-26T16:32:38.704Z,4.25
2023-02-26T16:35:16.341Z,4.30
2023-02-26T16:37:50.030Z,4.47
2023-02-26T16:40:25.863Z,4.90
2023-02-26T16:42:55.072Z,4.40
2023-02-26T16:45:37.546Z,4.47
2023-02-26T16:48:16.644Z,4.93
2023-02-26T16:50:43.872Z,4.60
2023-02-26T16:53:16.393Z,4.57
2023-02-26T16:55:47.402Z,4.75
2023-02-26T16:58:14.736Z,4.68
2023-02-26T17:00:44.551Z,4.70
2023-02-26T17:03:19.858Z,4.78
2023-02-26T17:06:06.908Z,4.90
2023-02-26T17:08:37.238Z,4.68
2023-02-26T17:11:07.750Z,4.13
2023-02-26T17:13:35.729Z,4.65
2023-02-26T17:16:04.742Z,4.50
2023-02-26T17:18:31.866Z,5.88
2023-02-26T17:20:59.754Z,5.72
2023-02-26T17:23:29.806Z,4.85
2023-02-26T17:25:57.076Z,6.13
2023-02-26T17:28:28.884Z,5.55
2023-02-26T17:30:56.180Z,6.22
2023-02-26T17:33:23.342Z,6.05
2023-02-26T17:35:50.513Z,5.88
2023-02-26T17:38:17.373Z,5.88
2023-02-26T17:40:45.463Z,6.63
2023-02-26T17:43:12.280Z,7.00
2023-02-26T17:45:40.276Z,6.40
2023-02-26T17:48:07.736Z,5.40
2023-02-26T17:50:54.574Z,6.22
2023-02-26T17:53:22.458Z,6.80
2023-02-26T17:55:50.383Z,7.68
2023-02-26T17:58:29.750Z,7.32
2023-02-26T18:00:57.278Z,6.15
2023-02-26T18:03:24.123Z,7.45
2023-02-26T18:05:51.398Z,6.50
2023-02-26T18:08:29.483Z,6.60
2023-02-26T18:10:56.906Z,6.63
2023-02-26T18:13:23.744Z,6.60
2023-02-26T18:15:51.167Z,6.97
2023-02-26T18:18:18.074Z,6.55
2023-02-26T18:20:46.170Z,7.70
2023-02-26T18:23:13.878Z,7.55
2023-02-26T18:25:41.230Z,7.03
2023-02-26T18:28:14.391Z,8.02
2023-02-26T18:30:44.144Z,7.95
2023-02-26T18:33:12.145Z,7.90
2023-02-26T18:35:45.700Z,8.40
2023-02-26T18:38:18.397Z,8.05
2023-02-26T18:40:45.978Z,8.13
2023-02-26T18:43:12.925Z,7.22
2023-02-26T18:45:41.622Z,8.30
2023-02-26T18:48:12.293Z,7.82
2023-02-26T18:50:39.567Z,8.30
2023-02-26T18:53:06.444Z,7.90
2023-02-26T18:55:33.722Z,6.88
2023-02-26T18:58:00.838Z,7.75
2023-02-26T19:00:28.814Z,8.60
2023-02-26T19:02:55.801Z,8.07
2023-02-26T19:05:24.744Z,7.72
2023-02-26T19:07:51.627Z,8.48
2023-02-26T19:10:18.996Z,8.02
2023-02-26T19:12:45.971Z,7.43
2023-02-26T19:15:13.458Z,7.57
2023-02-26T19:17:41.709Z,8.18
2023-02-26T19:20:10.110Z,8.18
2023-02-26T19:22:36.986Z,7.88
2023-02-26T19:25:04.751Z,8.07
2023-02-26T19:27:31.611Z,6.47
2023-02-26T19:29:58.763Z,7.68
2023-02-26T19:32:26.624Z,7.25
2023-02-26T19:34:53.826Z,7.53
2023-02-26T19:37:20.680Z,6.72
2023-02-26T19:39:47.971Z,6.82
2023-02-26T19:42:15.067Z,7.10
2023-02-26T19:44:42.272Z,7.88
2023-02-26T19:47:09.749Z,6.85
2023-02-26T19:49:37.064Z,8.25
2023-02-26T19:52:04.146Z,7.43
2023-02-26T19:54:31.516Z,7.32
2023-02-26T19:56:58.492Z,7.68
2023-02-26T19:59:25.737Z,6.72
2023-02-26T20:01:52.685Z,6.43
2023-02-26T20:04:19.837Z,6.90
2023-02-26T20:06:46.868Z,6.88
2023-02-26T20:09:14.675Z,6.82
2023-02-26T20:11:42.050Z,6.80
2023-02-26T20:14:09.357Z,6.20
2023-02-26T20:16:36.234Z,6.50
2023-02-26T20:19:03.366Z,6.07
2023-02-26T20:21:30.235Z,5.72
2023-02-26T20:23:57.740Z,6.00
2023-02-26T20:26:24.645Z,6.50
2023-02-26T20:28:51.800Z,6.53
2023-02-26T20:31:18.752Z,5.80
2023-02-26T20:33:46.227Z,5.80
2023-02-26T20:36:14.933Z,5.90
2023-02-26T20:38:42.983Z,6.53
2023-02-26T20:41:10.115Z,6.00
2023-02-26T20:43:37.390Z,5.97
2023-02-26T20:46:04.914Z,6.07
2023-02-26T20:48:32.324Z,6.30
2023-02-26T20:51:00.519Z,6.55
2023-02-26T20:53:27.978Z,5.57
2023-02-26T20:55:55.035Z,5.88
2023-02-26T20:58:22.213Z,5.45
2023-02-26T21:00:49.093Z,6.30
2023-02-26T21:03:16.264Z,6.00
2023-02-26T21:05:43.197Z,5.55
2023-02-26T21:08:10.632Z,5.90
2023-02-26T21:10:37.404Z,5.45
2023-02-26T21:13:04.410Z,5.95
2023-02-26T21:15:31.267Z,6.28
2023-02-26T21:17:58.397Z,5.85
2023-02-26T21:20:25.214Z,6.07
2023-02-26T21:22:52.480Z,6.00
2023-02-26T21:25:19.373Z,6.22
2023-02-26T21:27:46.498Z,5.22
2023-02-26T21:30:13.726Z,5.63
2023-02-26T21:32:41.013Z,6.03
2023-02-26T21:35:08.873Z,5.65
2023-02-26T21:37:36.066Z,5.43
2023-02-26T21:40:06.386Z,5.75
2023-02-26T21:42:33.564Z,5.90
2023-02-26T21:45:00.358Z,5.35
2023-02-26T21:47:27.441Z,6.20
2023-02-26T21:49:54.234Z,6.03
2023-02-26T21:52:21.396Z,6.22
2023-02-26T21:54:48.226Z,6.13
2023-02-26T21:57:15.370Z,5.57
2023-02-26T21:59:42.170Z,5.70
2023-02-26T22:02:10.847Z,5.68
2023-02-26T22:04:38.041Z,6.03
2023-02-26T22:07:05.095Z,6.65
2023-02-26T22:09:31.877Z,6.18
2023-02-26T22:11:59.018Z,5.70
2023-02-26T22:14:25.962Z,6.53
2023-02-26T22:16:53.089Z,6.75
2023-02-26T22:19:19.932Z,6.30
2023-02-26T22:21:47.011Z,7.45
2023-02-26T22:24:13.870Z,6.50
2023-02-26T22:26:42.704Z,5.30
2023-02-26T22:29:09.751Z,6.22
2023-02-26T22:31:36.979Z,5.68
2023-02-26T22:34:03.767Z,6.03
2023-02-26T22:36:31.447Z,6.93
2023-02-26T22:38:58.356Z,5.75
2023-02-26T22:41:25.471Z,5.90
2023-02-26T22:43:53.947Z,5.95
2023-02-26T22:46:23.229Z,5.82
2023-02-26T22:48:50.060Z,6.10
2023-02-26T22:51:17.095Z,5.95
2023-02-26T22:53:43.868Z,6.38
2023-02-26T22:56:11.058Z,6.30
2023-02-26T22:58:38.606Z,6.30
2023-02-26T23:01:06.555Z,5.32
2023-02-26T23:03:33.484Z,5.35
2023-02-26T23:06:00.685Z,6.97
2023-02-26T23:08:27.581Z,5.75
2023-02-26T23:10:58.447Z,5.57
2023-02-26T23:13:25.388Z,5.22
2023-02-26T23:15:52.654Z,5.75
2023-02-26T23:18:19.495Z,6.22
2023-02-26T23:20:47.331Z,5.80
2023-02-26T23:23:14.315Z,5.35
2023-02-26T23:25:42.558Z,5.32
2023-02-26T23:28:09.312Z,5.43
2023-02-26T23:30:36.393Z,5.03
2023-02-26T23:33:04.155Z,5.80
2023-02-26T23:35:31.247Z,5.40
2023-02-26T23:37:57.993Z,5.22
2023-02-26T23:40:25.262Z,5.57
2023-02-26T23:42:52.512Z,5.22
2023-02-26T23:45:19.604Z,4.63
2023-02-26T23:47:46.371Z,5.05
2023-02-26T23:50:13.421Z,4.82
2023-02-26T23:52:40.177Z,6.00
2023-02-26T23:55:07.884Z,5.15
2023-02-26T23:57:34.626Z,6.43
